Abington, Indiana
Current Conditions -  °F | °C
As of 1:05 PM on Tuesday 21 Oct 2014 (Local Time) from KMIE Reporting Station
Overcast Overcast  
Wind Chill: 52°   Ceiling: 2800
Heat Index: 52°   Visibility: 10mi
Dew Point: 42°   Wind: 14mph
Humidity: 69%   Direction: 360°N
Pressure: 30.07"   Gusts: NA
Location:  39.7862°N, 85.0229°W
Report Text: KMIE 211705Z 36012KT 10SM BKN028 OVC055 11/06 A3007 RMK AO2 T01110056
Loading
Personal Weather Stations






























Interactive Weather Map
Tropical Storm Tracking
New forecast layout! Learn more

10-Day Weather Forecast

Advertisements
Track Severe Weather on mobile